This is the latest recevied weather packets stored in our database for station/object NK7E-2. If no packets are shown the sender has not sent any weather packets the latest 1 day(s).
| Time | Temp. | Humidity | Pressure | Rain* | Wind** | Luminosity | Snow |
|---|---|---|---|---|---|---|---|
| 1778064917 | 12.22° C | 51% | 1020.7 hPa | 0 mm | 1.34 m/s, 68° | - | - |
| 1778064317 | 12.22° C | 50% | 1020.6 hPa | 0 mm | 1.79 m/s, 68° | - | - |
| 1778063717 | 12.22° C | 51% | 1020.6 hPa | 0 mm | 1.79 m/s, 68° | - | - |
| 1778063117 | 12.22° C | 51% | 1020.4 hPa | 0 mm | 1.79 m/s, 68° | - | - |
| 1778062517 | 12.22° C | 51% | 1020.3 hPa | 0 mm | 1.79 m/s, 68° | - | - |
| 1778061917 | 12.22° C | 52% | 1020.3 hPa | 0 mm | 0.89 m/s, 68° | - | - |
| 1778061317 | 12.22° C | 52% | 1020.4 hPa | 0 mm | 1.34 m/s, 45° | - | - |
| 1778060717 | 12.78° C | 52% | 1020.4 hPa | 0 mm | 1.79 m/s, 45° | - | - |
| 1778060117 | 12.78° C | 51% | 1020.3 hPa | 0 mm | 1.79 m/s, 68° | - | - |
| 1778059517 | 12.78° C | 52% | 1020.3 hPa | 0 mm | 1.34 m/s, 45° | - | - |
| 1778058917 | 12.78° C | 52% | 1020.4 hPa | 0 mm | 1.34 m/s, 68° | - | - |
| 1778058317 | 12.22° C | 53% | 1020.2 hPa | 0 mm | 1.34 m/s, 68° | - | - |
| 1778057717 | 11.67° C | 56% | 1019.8 hPa | 0 mm | 0.89 m/s, 68° | - | - |
| 1778057117 | 11.67° C | 57% | 1019.6 hPa | 0 mm | 0.45 m/s, 68° | - | - |
| 1778056517 | 11.67° C | 55% | 1019.7 hPa | 0 mm | 0.45 m/s, 68° | - | - |
| 1778055917 | 12.22° C | 54% | 1020.1 hPa | 0 mm | 0.89 m/s, 68° | - | - |
| 1778055317 | 12.22° C | 56% | 1020 hPa | 0 mm | 0.89 m/s, 68° | - | - |
| 1778054717 | 12.22° C | 55% | 1020.1 hPa | 0 mm | 0.45 m/s, 68° | - | - |
| 1778054117 | 12.22° C | 55% | 1020.1 hPa | 0 mm | 0.45 m/s, 68° | - | - |
| 1778051717 | 13.33° C | 52% | 1020.5 hPa | 0 mm | 0.45 m/s, 68° | - | - |
| 1778051117 | 13.33° C | 52% | 1020.1 hPa | 0 mm | 0.45 m/s, 68° | - | - |
| 1778050517 | 13.89° C | 51% | 1020.2 hPa | 0 mm | 0.45 m/s, 68° | - | - |
| 1778049917 | 13.89° C | 49% | 1020.1 hPa | 0 mm | 0.89 m/s, 45° | - | - |
| 1778049317 | 13.33° C | 54% | 1019.7 hPa | 0 mm | 0.89 m/s, 68° | - | - |
| 1778048117 | 15° C | 45% | 1020.2 hPa | 0 mm | 0.45 m/s, 0° | - | - |
* Rain latest hour (hover to see other rain measurements)
** Current wind speed in m/s (hover to see current wind gust speed)